createdAt,value
2023-03-27T04:36:09.262Z,17.15
2023-03-27T04:38:40.435Z,18.13
2023-03-27T04:41:09.766Z,18.27
2023-03-27T04:43:41.254Z,17.48
2023-03-27T04:46:10.337Z,17.35
2023-03-27T04:48:39.615Z,17.77
2023-03-27T04:51:13.155Z,15.82
2023-03-27T04:53:44.029Z,16.13
2023-03-27T04:56:13.097Z,15.90
2023-03-27T04:58:42.477Z,15.45
2023-03-27T05:01:11.477Z,14.02
2023-03-27T05:03:41.607Z,14.45
2023-03-27T05:06:11.311Z,17.42
2023-03-27T05:08:40.287Z,18.27
2023-03-27T05:11:09.891Z,15.05
2023-03-27T05:13:39.688Z,15.55
2023-03-27T05:16:11.136Z,15.48
2023-03-27T05:18:41.959Z,13.82
2023-03-27T05:21:11.940Z,13.90
2023-03-27T05:23:40.890Z,13.23
2023-03-27T05:26:10.010Z,12.93
2023-03-27T05:28:41.023Z,15.32
2023-03-27T05:31:19.093Z,14.60
2023-03-27T05:33:48.344Z,17.02
2023-03-27T05:36:17.539Z,16.20
2023-03-27T05:38:47.111Z,17.25
2023-03-27T05:41:17.455Z,16.40
2023-03-27T05:43:47.109Z,15.05
2023-03-27T05:46:21.386Z,15.52
2023-03-27T05:48:50.943Z,15.23
2023-03-27T05:51:19.969Z,14.32
2023-03-27T05:53:48.914Z,10.82
2023-03-27T05:56:18.030Z,10.85
2023-03-27T05:58:46.997Z,10.82
2023-03-27T06:01:16.068Z,10.60
2023-03-27T06:03:45.178Z,9.98
2023-03-27T06:06:14.888Z,12.90
2023-03-27T06:08:43.826Z,10.40
2023-03-27T06:11:14.061Z,8.95
2023-03-27T06:13:43.921Z,8.85
2023-03-27T06:16:13.216Z,8.75
2023-03-27T06:18:42.540Z,9.30
2023-03-27T06:21:11.647Z,8.55
2023-03-27T06:23:40.693Z,10.70
2023-03-27T06:26:09.755Z,8.98
2023-03-27T06:28:40.405Z,10.80
2023-03-27T06:31:10.070Z,12.10
2023-03-27T06:33:41.939Z,8.15
2023-03-27T06:36:11.367Z,8.27
2023-03-27T06:38:40.406Z,8.20
2023-03-27T06:41:09.345Z,8.15
2023-03-27T06:43:38.257Z,8.18
2023-03-27T06:46:08.104Z,7.85
2023-03-27T06:48:37.924Z,8.30
2023-03-27T06:51:07.732Z,8.55
2023-03-27T06:53:38.236Z,7.68
2023-03-27T06:56:08.011Z,7.53
2023-03-27T06:58:37.737Z,7.75
2023-03-27T07:01:06.998Z,7.60
2023-03-27T07:03:36.029Z,7.25
2023-03-27T07:06:05.186Z,7.50
2023-03-27T07:08:34.277Z,7.57
2023-03-27T07:13:37.400Z,7.25
2023-03-27T07:16:07.445Z,7.85
2023-03-27T07:18:37.440Z,7.82
2023-03-27T07:21:08.893Z,7.63
2023-03-27T07:23:37.938Z,7.68
2023-03-27T07:26:07.248Z,8.43
2023-03-27T07:28:39.538Z,8.52
2023-03-27T07:31:26.008Z,8.77
2023-03-27T07:34:00.264Z,7.32
2023-03-27T07:36:30.000Z,8.55
2023-03-27T07:38:58.956Z,8.77
2023-03-27T07:41:28.075Z,8.43
2023-03-27T07:43:58.164Z,8.10
2023-03-27T07:46:27.731Z,8.90
2023-03-27T07:48:58.018Z,8.73
2023-03-27T07:51:27.087Z,8.77
2023-03-27T07:53:59.627Z,8.55
2023-03-27T07:56:29.370Z,8.38
2023-03-27T07:58:58.382Z,9.65
2023-03-27T08:01:27.634Z,10.25
2023-03-27T08:03:58.512Z,9.15
2023-03-27T08:06:28.486Z,8.75
2023-03-27T08:08:58.232Z,8.23
2023-03-27T08:11:30.831Z,8.65
2023-03-27T08:16:30.782Z,8.65
2023-03-27T08:19:01.397Z,8.75
2023-03-27T08:21:35.941Z,9.10
2023-03-27T08:24:05.969Z,9.57
2023-03-27T08:26:35.033Z,9.15
2023-03-27T08:29:04.839Z,8.48
2023-03-27T08:31:37.046Z,10.70
2023-03-27T08:34:06.209Z,10.80
2023-03-27T08:36:35.761Z,10.07
2023-03-27T08:39:05.231Z,9.48
2023-03-27T08:41:49.944Z,9.48
2023-03-27T08:44:22.784Z,9.43
2023-03-27T08:47:09.432Z,10.68
2023-03-27T08:49:43.551Z,9.57
2023-03-27T08:52:20.749Z,9.90
2023-03-27T08:55:08.835Z,10.57
2023-03-27T08:57:38.599Z,9.93
2023-03-27T09:00:16.118Z,10.10
2023-03-27T09:02:54.479Z,9.50
2023-03-27T09:05:32.087Z,10.73
2023-03-27T09:08:33.284Z,10.20
2023-03-27T09:11:20.597Z,9.88
2023-03-27T09:13:53.182Z,9.75
2023-03-27T09:16:35.875Z,9.95
2023-03-27T09:19:28.330Z,10.18
2023-03-27T09:22:03.812Z,9.93
2023-03-27T09:24:37.589Z,10.02
2023-03-27T09:27:16.571Z,10.30
2023-03-27T09:29:49.268Z,11.25
2023-03-27T09:32:18.536Z,10.45
2023-03-27T09:34:54.285Z,9.93
2023-03-27T09:37:23.487Z,9.60
2023-03-27T09:39:54.214Z,10.48
2023-03-27T09:42:35.002Z,10.27
2023-03-27T09:45:11.031Z,9.45
2023-03-27T09:47:52.268Z,9.98
2023-03-27T09:50:42.671Z,9.40
2023-03-27T09:53:26.404Z,10.23
2023-03-27T09:55:57.623Z,9.82
2023-03-27T09:58:50.227Z,10.63
2023-03-27T10:01:35.656Z,11.10
2023-03-27T10:04:15.810Z,10.38
2023-03-27T10:06:49.183Z,10.55
2023-03-27T10:09:28.813Z,11.13
2023-03-27T10:12:09.153Z,10.45
2023-03-27T10:14:45.781Z,11.23
2023-03-27T10:17:40.979Z,10.10
2023-03-27T10:20:21.340Z,11.15
2023-03-27T10:23:04.945Z,11.73
2023-03-27T10:25:40.563Z,10.85
2023-03-27T10:28:31.116Z,10.75
2023-03-27T10:31:01.950Z,11.75
2023-03-27T10:33:37.730Z,11.88
2023-03-27T10:36:09.960Z,12.40
2023-03-27T10:38:43.143Z,12.55
2023-03-27T10:43:59.309Z,12.40
2023-03-27T10:46:30.369Z,12.25
2023-03-27T10:49:20.564Z,12.73
2023-03-27T10:52:04.680Z,11.70
2023-03-27T10:54:55.037Z,12.93
2023-03-27T10:57:35.745Z,12.63
2023-03-27T11:00:21.195Z,11.73
2023-03-27T11:03:08.296Z,13.52
2023-03-27T11:05:54.915Z,12.55
2023-03-27T11:09:06.676Z,12.20
2023-03-27T11:11:43.901Z,13.40
2023-03-27T11:14:38.433Z,13.48
2023-03-27T11:17:10.187Z,14.02
2023-03-27T11:19:51.075Z,14.85
2023-03-27T11:22:33.384Z,13.45
2023-03-27T11:25:26.590Z,15.52
2023-03-27T11:28:20.337Z,14.02
2023-03-27T11:30:57.199Z,14.75
2023-03-27T11:33:49.250Z,15.85
2023-03-27T11:36:30.986Z,22.98
2023-03-27T11:39:24.642Z,18.63
2023-03-27T11:42:02.652Z,15.60
2023-03-27T11:44:31.609Z,14.95
2023-03-27T11:47:31.068Z,14.50
2023-03-27T11:50:27.810Z,14.40
2023-03-27T11:52:59.461Z,13.50
2023-03-27T11:55:40.781Z,15.45
2023-03-27T11:58:09.808Z,15.02
2023-03-27T12:01:03.420Z,14.70
2023-03-27T12:03:44.819Z,15.55
2023-03-27T12:06:17.560Z,15.90
2023-03-27T12:08:52.766Z,15.50
2023-03-27T12:11:23.424Z,15.82
2023-03-27T12:14:19.913Z,17.95
2023-03-27T12:17:05.070Z,18.52
2023-03-27T12:19:46.398Z,22.02
2023-03-27T12:22:41.459Z,20.55
2023-03-27T12:25:46.511Z,18.08
2023-03-27T12:28:38.295Z,18.35
2023-03-27T12:31:26.501Z,18.77
2023-03-27T12:34:15.818Z,20.95
2023-03-27T12:36:49.412Z,19.45
2023-03-27T12:39:25.586Z,18.35
2023-03-27T12:41:55.031Z,19.30
2023-03-27T12:44:53.633Z,19.80
2023-03-27T12:47:27.329Z,20.10
2023-03-27T12:50:12.973Z,20.52
2023-03-27T12:52:45.730Z,22.83
2023-03-27T12:55:20.488Z,20.17
2023-03-27T12:57:49.671Z,19.63
2023-03-27T13:00:26.695Z,18.50
2023-03-27T13:03:14.797Z,19.17
2023-03-27T13:06:13.818Z,19.75
2023-03-27T13:09:06.403Z,20.83
2023-03-27T13:11:50.984Z,21.23
2023-03-27T13:14:39.771Z,21.02
2023-03-27T13:17:18.208Z,21.75
2023-03-27T13:20:10.961Z,20.85
2023-03-27T13:22:55.328Z,20.95
2023-03-27T13:25:30.316Z,18.55
2023-03-27T13:28:26.341Z,17.85
2023-03-27T13:30:58.000Z,19.35
2023-03-27T13:33:32.840Z,17.92
2023-03-27T13:36:04.989Z,19.75
2023-03-27T13:38:53.842Z,18.67
2023-03-27T13:41:49.819Z,20.52
2023-03-27T13:44:29.337Z,18.38
2023-03-27T13:47:05.149Z,18.60
2023-03-27T13:49:51.100Z,19.20
2023-03-27T13:52:26.163Z,20.42
2023-03-27T13:55:29.189Z,18.23
2023-03-27T13:58:20.421Z,18.75
2023-03-27T14:01:26.391Z,18.35
2023-03-27T14:04:10.386Z,17.90
2023-03-27T14:07:16.505Z,17.65
2023-03-27T14:10:10.554Z,17.52
2023-03-27T14:15:42.437Z,16.42
2023-03-27T14:18:40.573Z,16.13
2023-03-27T14:21:27.584Z,17.00
2023-03-27T14:24:23.682Z,17.83
2023-03-27T14:26:56.158Z,16.73
2023-03-27T14:29:25.184Z,17.20
2023-03-27T14:31:54.739Z,16.92
2023-03-27T14:34:35.319Z,15.60
2023-03-27T14:37:32.794Z,17.20
2023-03-27T14:40:02.367Z,16.92
2023-03-27T14:42:33.577Z,16.60
2023-03-27T14:45:25.034Z,17.15
2023-03-27T14:48:01.574Z,17.70
2023-03-27T14:50:32.748Z,17.60
2023-03-27T14:53:02.834Z,18.67
2023-03-27T14:55:35.634Z,18.30
2023-03-27T14:58:11.386Z,17.40
2023-03-27T15:00:42.552Z,17.95
2023-03-27T15:03:36.343Z,17.70
2023-03-27T15:06:18.196Z,17.75
2023-03-27T15:08:53.297Z,17.65
2023-03-27T15:11:25.020Z,17.73
2023-03-27T15:13:54.215Z,16.35
2023-03-27T15:16:26.521Z,16.02
2023-03-27T15:19:15.010Z,15.38
2023-03-27T15:22:00.464Z,16.98
2023-03-27T15:24:57.368Z,15.75
2023-03-27T15:27:29.821Z,15.63
2023-03-27T15:30:19.421Z,16.15
2023-03-27T15:32:54.410Z,16.38
2023-03-27T15:35:41.346Z,16.20
2023-03-27T15:38:15.347Z,16.58
2023-03-27T15:40:47.793Z,16.45
2023-03-27T15:43:17.539Z,18.45
2023-03-27T15:46:14.878Z,16.60
2023-03-27T15:48:46.768Z,16.88
2023-03-27T15:51:35.916Z,15.95
2023-03-27T15:54:32.951Z,17.38
2023-03-27T15:57:11.448Z,15.38
2023-03-27T15:59:52.451Z,14.93
2023-03-27T16:02:24.927Z,16.20
2023-03-27T16:04:59.372Z,14.80
2023-03-27T16:07:34.500Z,15.52
2023-03-27T16:10:08.101Z,14.50
2023-03-27T16:12:58.195Z,16.40
2023-03-27T16:15:33.082Z,14.73
2023-03-27T16:18:24.798Z,14.48
2023-03-27T16:20:53.847Z,13.90
2023-03-27T16:23:23.130Z,14.57
2023-03-27T16:25:52.383Z,14.98
2023-03-27T16:28:21.445Z,14.25
2023-03-27T16:30:51.100Z,14.13
2023-03-27T16:33:23.690Z,14.40
2023-03-27T16:35:53.370Z,13.85
2023-03-27T16:38:22.821Z,13.73
2023-03-27T16:40:52.105Z,13.60
2023-03-27T16:43:21.090Z,13.52
2023-03-27T16:45:50.659Z,14.30
2023-03-27T16:48:19.647Z,15.48
2023-03-27T16:50:48.586Z,15.13
2023-03-27T16:53:17.608Z,14.48
2023-03-27T16:55:47.556Z,13.38
2023-03-27T16:58:16.564Z,13.60
2023-03-27T17:00:45.586Z,13.70
2023-03-27T17:03:14.704Z,12.90
2023-03-27T17:05:45.243Z,13.70
2023-03-27T17:08:17.544Z,13.63
2023-03-27T17:10:47.869Z,13.15
2023-03-27T17:13:17.622Z,13.85
2023-03-27T17:15:50.060Z,13.55
2023-03-27T17:18:19.082Z,13.30
2023-03-27T17:20:48.060Z,12.73
2023-03-27T17:23:17.176Z,13.60
2023-03-27T17:25:47.095Z,13.15
2023-03-27T17:28:16.349Z,13.20
2023-03-27T17:30:53.031Z,14.65
2023-03-27T17:33:30.554Z,12.77
2023-03-27T17:35:59.835Z,12.65
2023-03-27T17:38:29.132Z,13.13
2023-03-27T17:40:58.107Z,12.75
2023-03-27T17:43:27.056Z,12.32
2023-03-27T17:45:56.263Z,13.23
2023-03-27T17:48:25.409Z,13.10
2023-03-27T17:51:07.595Z,12.55
2023-03-27T17:53:39.688Z,11.75
2023-03-27T17:56:09.691Z,11.82
2023-03-27T17:58:38.658Z,11.38
2023-03-27T18:01:22.244Z,11.77
2023-03-27T18:03:51.997Z,12.52
2023-03-27T18:06:21.244Z,12.30
2023-03-27T18:08:50.182Z,11.05
2023-03-27T18:11:19.358Z,11.25
2023-03-27T18:13:53.741Z,12.60
2023-03-27T18:16:24.183Z,11.00
2023-03-27T18:18:55.972Z,11.68
2023-03-27T18:21:25.582Z,13.07
2023-03-27T18:23:57.148Z,11.38
2023-03-27T18:26:26.471Z,11.55
2023-03-27T18:28:56.390Z,11.88
2023-03-27T18:31:25.779Z,11.75
2023-03-27T18:33:54.985Z,11.77
2023-03-27T18:36:24.222Z,11.00
2023-03-27T18:38:53.328Z,11.88
2023-03-27T18:41:22.353Z,11.15
2023-03-27T18:43:51.418Z,11.00
2023-03-27T18:46:20.628Z,10.77
2023-03-27T18:48:52.209Z,11.98
2023-03-27T18:51:22.152Z,10.73
2023-03-27T18:53:52.391Z,11.32
2023-03-27T18:56:21.441Z,10.73
2023-03-27T18:58:50.649Z,10.98
2023-03-27T19:01:19.723Z,11.23
2023-03-27T19:03:51.280Z,10.25
2023-03-27T19:06:21.362Z,10.43
2023-03-27T19:08:50.321Z,11.15
2023-03-27T19:11:20.085Z,10.35
2023-03-27T19:13:49.065Z,11.20
2023-03-27T19:16:18.119Z,10.25
2023-03-27T19:18:47.081Z,10.20
2023-03-27T19:21:17.480Z,10.82
2023-03-27T19:23:46.479Z,9.80
2023-03-27T19:26:18.552Z,10.73
2023-03-27T19:28:50.963Z,9.80
2023-03-27T19:31:20.011Z,10.00
2023-03-27T19:33:49.007Z,11.60
2023-03-27T19:36:18.311Z,11.43
2023-03-27T19:38:47.349Z,10.10
2023-03-27T19:41:16.531Z,9.95
2023-03-27T19:43:45.763Z,10.38
2023-03-27T19:46:16.637Z,10.25
2023-03-27T19:48:48.609Z,10.45
2023-03-27T19:51:17.550Z,10.43
2023-03-27T19:53:46.835Z,11.20
2023-03-27T19:56:15.922Z,10.95
2023-03-27T19:58:45.002Z,10.60
2023-03-27T20:01:14.314Z,10.65
2023-03-27T20:03:43.551Z,10.23
2023-03-27T20:06:18.618Z,10.48
2023-03-27T20:08:47.819Z,10.18
2023-03-27T20:11:16.841Z,10.60
2023-03-27T20:13:56.206Z,11.55
2023-03-27T20:16:28.465Z,11.20
2023-03-27T20:19:06.478Z,12.05
2023-03-27T20:21:38.778Z,11.50
2023-03-27T20:24:10.909Z,11.60
2023-03-27T20:26:41.643Z,11.45
2023-03-27T20:29:17.426Z,11.95
2023-03-27T20:31:46.594Z,12.30
2023-03-27T20:34:16.110Z,12.15
2023-03-27T20:36:45.177Z,12.30
2023-03-27T20:39:15.395Z,12.98
2023-03-27T20:41:44.594Z,12.15
2023-03-27T20:44:19.138Z,12.55
2023-03-27T20:46:52.991Z,12.43
2023-03-27T20:49:39.783Z,12.85
2023-03-27T20:52:11.475Z,12.52
2023-03-27T20:54:40.766Z,13.60
2023-03-27T20:57:10.563Z,13.93
2023-03-27T20:59:39.857Z,13.10
2023-03-27T21:02:08.972Z,16.45
2023-03-27T21:04:38.051Z,16.33
2023-03-27T21:07:10.768Z,15.93
2023-03-27T21:09:40.242Z,15.80
2023-03-27T21:12:10.467Z,18.88
2023-03-27T21:14:39.529Z,17.45
2023-03-27T21:17:08.985Z,17.08
2023-03-27T21:19:37.944Z,19.15
2023-03-27T21:22:06.919Z,20.60
2023-03-27T21:24:35.971Z,20.15
2023-03-27T21:27:05.049Z,20.52
2023-03-27T21:29:34.158Z,19.58
2023-03-27T21:32:03.246Z,20.33
2023-03-27T21:34:32.302Z,19.75
2023-03-27T21:37:03.692Z,19.98
2023-03-27T21:39:32.725Z,20.58
2023-03-27T21:42:01.909Z,22.50
2023-03-27T21:44:30.984Z,21.95
2023-03-27T21:47:00.104Z,21.75
2023-03-27T21:49:29.216Z,22.88
2023-03-27T21:51:58.240Z,21.52
2023-03-27T21:54:27.256Z,22.17
2023-03-27T21:56:56.512Z,21.90
2023-03-27T21:59:26.388Z,20.40
2023-03-27T22:01:55.676Z,21.90
2023-03-27T22:04:25.379Z,22.60
2023-03-27T22:06:54.703Z,22.67
2023-03-27T22:09:23.949Z,23.10
2023-03-27T22:11:52.951Z,22.80
2023-03-27T22:14:21.881Z,23.58
2023-03-27T22:16:50.952Z,23.13
2023-03-27T22:19:20.331Z,22.83
2023-03-27T22:21:49.333Z,25.60
2023-03-27T22:24:18.383Z,21.95
2023-03-27T22:26:47.325Z,21.73
2023-03-27T22:29:17.034Z,23.58
2023-03-27T22:31:45.999Z,23.83
2023-03-27T22:34:14.926Z,22.83
2023-03-27T22:36:43.971Z,23.85
2023-03-27T22:39:12.944Z,23.23
2023-03-27T22:41:42.093Z,24.52
2023-03-27T22:44:11.218Z,24.35
2023-03-27T22:46:40.222Z,25.40
2023-03-27T22:49:09.228Z,23.05
2023-03-27T22:51:38.301Z,25.05
2023-03-27T22:54:07.468Z,25.92
2023-03-27T22:56:36.534Z,26.58
2023-03-27T22:59:05.678Z,24.42
2023-03-27T23:01:34.679Z,25.23
2023-03-27T23:04:03.639Z,25.35
2023-03-27T23:06:32.806Z,23.98
2023-03-27T23:09:01.970Z,25.25
2023-03-27T23:11:31.228Z,24.80
2023-03-27T23:14:00.198Z,23.85
2023-03-27T23:16:29.180Z,24.58
2023-03-27T23:18:58.145Z,25.23
2023-03-27T23:21:27.126Z,25.40
2023-03-27T23:23:56.730Z,24.65
2023-03-27T23:26:25.657Z,24.35
2023-03-27T23:28:54.648Z,24.27
2023-03-27T23:31:23.981Z,24.80
2023-03-27T23:33:53.204Z,26.10
2023-03-27T23:36:24.992Z,24.40
2023-03-27T23:38:54.833Z,24.58
2023-03-27T23:41:23.951Z,24.73
2023-03-27T23:43:55.052Z,24.67
2023-03-27T23:46:24.065Z,25.33
2023-03-27T23:48:53.088Z,25.80
2023-03-27T23:51:22.269Z,23.75
2023-03-27T23:53:51.788Z,23.45
2023-03-27T23:56:20.732Z,21.55
2023-03-27T23:58:49.705Z,22.75
